Terminal Aerodrome Forecast
Issued by NWS Cleveland, OH

Home | Current Version | Previous Version | Text Only | Print | Product List | Glossary Off
Versions: 1 2 3 4 5 6 7 8 9 10 11 12 13 14 15 16 17 18 19 20 21 22

000
FTUS41 KCLE 291728
TAFCAK
TAF
KCAK 291728Z 2918/3018 18009KT P6SM -SHRA OVC120
     FM292200 14006KT 5SM BR VCSH OVC025
     FM300300 14011KT 4SM BR VCSH OVC007
     FM301700 20008KT 4SM BR OVC015=

USA.gov is the U.S. government's official web portal to all federal, state and local government web resources and services.